createdAt,value
2019-05-02T00:02:04.748Z,9.00
2019-05-02T00:05:09.817Z,8.90
2019-05-02T00:08:13.243Z,8.90
2019-05-02T00:11:17.044Z,8.90
2019-05-02T00:14:20.493Z,8.90
2019-05-02T00:17:25.662Z,8.90
2019-05-02T00:20:29.199Z,8.90
2019-05-02T00:23:32.697Z,8.80
2019-05-02T00:26:36.225Z,8.80
2019-05-02T00:29:39.684Z,8.80
2019-05-02T00:32:43.144Z,8.70
2019-05-02T00:35:47.627Z,8.70
2019-05-02T00:38:51.316Z,8.70
2019-05-02T00:41:54.756Z,8.70
2019-05-02T00:44:58.217Z,8.70
2019-05-02T00:48:05.968Z,8.70
2019-05-02T00:51:09.428Z,8.60
2019-05-02T00:54:12.888Z,8.50
2019-05-02T00:57:19.881Z,8.50
2019-05-02T01:00:21.585Z,8.30
2019-05-02T01:03:26.645Z,8.30
2019-05-02T01:06:30.108Z,8.30
2019-05-02T01:09:33.917Z,8.30
2019-05-02T01:12:39.959Z,8.30
2019-05-02T01:15:44.113Z,8.40
2019-05-02T01:18:47.856Z,8.30
2019-05-02T01:21:51.321Z,8.30
2019-05-02T01:24:54.765Z,8.20
2019-05-02T01:28:17.573Z,8.20
2019-05-02T01:31:23.126Z,8.20
2019-05-02T01:34:48.932Z,8.10
2019-05-02T01:38:09.392Z,8.00
2019-05-02T01:41:12.935Z,8.00
2019-05-02T01:44:16.369Z,8.00
2019-05-02T01:47:19.816Z,8.00
2019-05-02T01:50:23.277Z,8.10
2019-05-02T01:53:29.362Z,8.00
2019-05-02T01:56:33.165Z,8.00
2019-05-02T01:59:37.134Z,8.00
2019-05-02T02:02:40.569Z,8.00
2019-05-02T02:05:44.111Z,7.90
2019-05-02T02:08:47.823Z,8.00
2019-05-02T02:11:51.257Z,8.00
2019-05-02T02:14:55.582Z,8.00
2019-05-02T02:17:59.208Z,7.90
2019-05-02T02:21:20.188Z,7.80
2019-05-02T02:24:25.123Z,7.80
2019-05-02T02:27:28.308Z,7.70
2019-05-02T02:30:31.746Z,7.70
2019-05-02T02:33:40.784Z,7.70
2019-05-02T02:36:40.381Z,7.70
2019-05-02T02:39:48.357Z,7.70
2019-05-02T02:42:49.169Z,7.70
2019-05-02T02:46:03.494Z,7.70
2019-05-02T02:49:06.924Z,7.80
2019-05-02T02:52:10.394Z,7.90
2019-05-02T02:55:16.113Z,8.00
2019-05-02T02:58:19.082Z,8.10
2019-05-02T03:01:28.687Z,8.10
2019-05-02T03:04:27.762Z,8.20
2019-05-02T03:07:31.233Z,8.30
2019-05-02T03:10:39.979Z,8.30
2019-05-02T03:13:52.446Z,8.30
2019-05-02T03:16:49.803Z,8.30
2019-05-02T03:19:54.227Z,8.30
2019-05-02T03:22:58.487Z,8.30
2019-05-02T03:26:07.911Z,8.40
2019-05-02T03:29:07.110Z,8.30
2019-05-02T03:32:16.670Z,8.30
2019-05-02T03:35:18.902Z,8.30
2019-05-02T03:38:31.081Z,8.30
2019-05-02T03:41:26.817Z,8.30
2019-05-02T03:44:30.453Z,8.30
2019-05-02T03:47:37.110Z,8.30
2019-05-02T03:50:39.132Z,8.40
2019-05-02T03:53:42.565Z,8.40
2019-05-02T03:56:51.267Z,8.50
2019-05-02T03:59:52.595Z,8.50
2019-05-02T04:03:00.475Z,8.40
2019-05-02T04:06:01.357Z,8.40
2019-05-02T04:09:07.174Z,8.40
2019-05-02T04:12:18.623Z,8.40
2019-05-02T04:15:15.882Z,8.40
2019-05-02T04:18:21.054Z,8.40
2019-05-02T04:21:26.307Z,8.40
2019-05-02T04:24:30.310Z,8.40
2019-05-02T04:27:35.900Z,8.40
2019-05-02T04:30:39.184Z,8.50
2019-05-02T04:33:42.766Z,8.50
2019-05-02T04:36:47.111Z,8.50
2019-05-02T04:39:53.660Z,8.50
2019-05-02T04:43:01.932Z,8.50
2019-05-02T04:46:01.781Z,8.50
2019-05-02T04:49:05.262Z,8.50
2019-05-02T04:52:12.207Z,8.50
2019-05-02T04:55:22.963Z,8.40
2019-05-02T04:58:27.721Z,8.50
2019-05-02T05:01:33.206Z,8.40
2019-05-02T05:04:33.124Z,8.50
2019-05-02T05:07:43.638Z,8.50
2019-05-02T05:10:45.050Z,8.50
2019-05-02T05:13:47.923Z,8.50
2019-05-02T05:16:55.520Z,8.60
2019-05-02T05:19:57.364Z,8.60
2019-05-02T05:23:02.005Z,8.80
2019-05-02T05:26:07.329Z,8.80
2019-05-02T05:29:13.982Z,8.90
2019-05-02T05:32:17.821Z,8.90
2019-05-02T05:35:20.988Z,9.10
2019-05-02T05:38:28.705Z,9.20
2019-05-02T05:41:29.615Z,9.20
2019-05-02T05:44:33.048Z,9.30
2019-05-02T05:47:37.817Z,9.30
2019-05-02T05:50:41.617Z,9.40
2019-05-02T05:53:45.183Z,9.50
2019-05-02T05:56:48.622Z,9.50
2019-05-02T05:59:52.089Z,9.50
2019-05-02T06:03:01.216Z,9.60
2019-05-02T06:06:00.711Z,9.70
2019-05-02T06:09:07.029Z,9.70
2019-05-02T06:12:10.492Z,9.60
2019-05-02T06:15:14.172Z,9.60
2019-05-02T06:18:17.638Z,9.60
2019-05-02T06:21:21.068Z,9.60
2019-05-02T06:24:24.537Z,9.60
2019-05-02T06:27:30.507Z,9.50
2019-05-02T06:30:33.188Z,9.70
2019-05-02T06:33:36.690Z,9.90
2019-05-02T06:36:40.140Z,9.80
2019-05-02T06:39:43.600Z,9.80
2019-05-02T06:42:47.128Z,9.70
2019-05-02T06:45:50.593Z,9.80
2019-05-02T06:48:54.034Z,9.90
2019-05-02T06:51:57.695Z,9.60
2019-05-02T06:55:01.311Z,9.40
2019-05-02T06:58:08.047Z,9.40
2019-05-02T07:01:09.997Z,9.50
2019-05-02T07:04:17.340Z,9.70
2019-05-02T07:07:18.734Z,9.80
2019-05-02T07:10:25.454Z,9.90
2019-05-02T07:13:27.356Z,9.90
2019-05-02T07:16:38.449Z,10.00
2019-05-02T07:19:39.432Z,10.00
2019-05-02T07:22:45.633Z,10.00
2019-05-02T07:25:48.469Z,9.90
2019-05-02T07:28:51.906Z,10.00
2019-05-02T07:31:55.386Z,10.30
2019-05-02T07:34:58.880Z,10.60
2019-05-02T07:38:11.524Z,10.80
2019-05-02T07:41:14.969Z,10.80
2019-05-02T07:44:20.388Z,10.80
2019-05-02T07:47:23.920Z,10.80
2019-05-02T07:50:27.395Z,10.90
2019-05-02T07:53:30.838Z,10.90
2019-05-02T07:56:34.322Z,11.10
2019-05-02T07:59:37.753Z,11.10
2019-05-02T08:02:41.228Z,11.10
2019-05-02T08:05:44.930Z,11.00
2019-05-02T08:08:48.428Z,11.00
2019-05-02T08:11:51.938Z,11.10
2019-05-02T08:14:55.404Z,11.40
2019-05-02T08:17:58.881Z,11.50
2019-05-02T08:21:02.348Z,11.60
2019-05-02T08:24:05.791Z,11.70
2019-05-02T08:27:10.902Z,12.00
2019-05-02T08:30:19.049Z,12.20
2019-05-02T08:33:22.520Z,12.10
2019-05-02T08:36:25.960Z,11.90
2019-05-02T08:39:33.342Z,11.70
2019-05-02T08:42:34.601Z,11.70
2019-05-02T08:45:39.427Z,11.70
2019-05-02T08:48:43.778Z,11.90
2019-05-02T08:51:47.553Z,12.70
2019-05-02T08:54:50.997Z,13.70
2019-05-02T08:57:54.469Z,14.30
2019-05-02T09:00:57.903Z,14.30
2019-05-02T09:04:01.385Z,14.20
2019-05-02T09:07:05.217Z,14.30
2019-05-02T09:10:09.861Z,14.70
2019-05-02T09:13:15.864Z,14.70
2019-05-02T09:16:23.711Z,15.10
2019-05-02T09:19:26.574Z,14.90
2019-05-02T09:22:30.242Z,14.90
2019-05-02T09:25:33.684Z,15.10
2019-05-02T09:28:37.169Z,14.90
2019-05-02T09:31:42.160Z,14.80
2019-05-02T09:34:45.799Z,14.30
2019-05-02T09:37:49.242Z,14.30
2019-05-02T09:40:56.220Z,14.20
2019-05-02T09:43:57.876Z,14.30
2019-05-02T09:47:02.342Z,14.50
2019-05-02T09:50:14.680Z,14.70
2019-05-02T09:53:20.510Z,14.70
2019-05-02T09:56:23.328Z,14.70
2019-05-02T09:59:33.268Z,14.70
2019-05-02T10:02:36.856Z,14.80
2019-05-02T10:05:40.326Z,14.80
2019-05-02T10:08:46.578Z,14.60
2019-05-02T10:11:49.024Z,14.40
2019-05-02T10:14:52.772Z,14.30
2019-05-02T10:18:07.819Z,14.40
2019-05-02T10:21:03.059Z,14.30
2019-05-02T10:24:06.744Z,14.50
2019-05-02T10:27:10.272Z,14.60
2019-05-02T10:30:15.793Z,14.50
2019-05-02T10:33:19.428Z,14.70
2019-05-02T10:36:24.010Z,14.80
2019-05-02T10:39:28.356Z,15.00
2019-05-02T10:42:32.797Z,14.90
2019-05-02T10:45:37.117Z,14.90
2019-05-02T10:48:42.221Z,14.80
2019-05-02T10:51:49.407Z,14.80
2019-05-02T10:54:52.881Z,14.70
2019-05-02T10:57:56.010Z,14.60
2019-05-02T11:00:59.472Z,14.50
2019-05-02T11:04:07.284Z,14.60
2019-05-02T11:07:17.056Z,14.60
2019-05-02T11:10:17.992Z,14.70
2019-05-02T11:13:23.088Z,14.80
2019-05-02T11:16:28.198Z,14.70
2019-05-02T11:19:42.352Z,14.70
2019-05-02T11:22:45.817Z,14.70
2019-05-02T11:25:49.280Z,14.60
2019-05-02T11:28:52.753Z,14.50
2019-05-02T11:31:56.192Z,14.40
2019-05-02T11:34:59.657Z,14.10
2019-05-02T11:38:03.186Z,14.10
2019-05-02T11:41:06.796Z,14.20
2019-05-02T11:44:12.094Z,14.40
2019-05-02T11:47:17.281Z,14.40
2019-05-02T11:50:22.109Z,14.60
2019-05-02T11:53:29.325Z,14.60
2019-05-02T11:56:32.800Z,14.60
2019-05-02T11:59:36.007Z,14.50
2019-05-02T12:02:41.725Z,14.60
2019-05-02T12:05:45.249Z,14.70
2019-05-02T12:08:49.490Z,14.60
2019-05-02T12:11:56.617Z,14.50
2019-05-02T12:14:58.308Z,14.60
2019-05-02T12:18:02.534Z,15.00
2019-05-02T12:21:06.106Z,15.10
2019-05-02T12:24:09.561Z,15.10
2019-05-02T12:27:13.085Z,15.00
2019-05-02T12:30:16.612Z,14.90
2019-05-02T12:33:22.301Z,14.70
2019-05-02T12:36:25.833Z,14.50
2019-05-02T12:39:29.287Z,14.30
2019-05-02T12:42:33.437Z,14.50
2019-05-02T12:45:37.292Z,14.70
2019-05-02T12:48:42.242Z,15.00
2019-05-02T12:51:45.884Z,15.30
2019-05-02T12:54:49.325Z,15.20
2019-05-02T12:57:52.785Z,15.20
2019-05-02T13:00:56.221Z,15.10
2019-05-02T13:04:04.024Z,15.10
2019-05-02T13:07:07.471Z,15.20
2019-05-02T13:10:13.600Z,15.20
2019-05-02T13:13:17.108Z,15.30
2019-05-02T13:16:22.555Z,15.50
2019-05-02T13:19:37.248Z,15.80
2019-05-02T13:22:42.014Z,15.90
2019-05-02T13:25:45.663Z,15.90
2019-05-02T13:28:49.131Z,15.80
2019-05-02T13:31:54.233Z,15.70
2019-05-02T13:35:15.972Z,15.60
2019-05-02T13:38:22.397Z,15.50
2019-05-02T13:41:25.928Z,15.40
2019-05-02T13:44:41.573Z,15.40
2019-05-02T13:47:45.016Z,15.40
2019-05-02T13:50:48.481Z,15.40
2019-05-02T13:53:56.665Z,15.50
2019-05-02T13:57:00.096Z,15.60
2019-05-02T14:00:05.536Z,15.50
2019-05-02T14:03:09.268Z,15.50
2019-05-02T14:06:12.716Z,15.40
2019-05-02T14:09:32.215Z,15.40
2019-05-02T14:12:45.822Z,15.20
2019-05-02T14:15:49.344Z,15.10
2019-05-02T14:18:53.062Z,15.10
2019-05-02T14:21:56.625Z,15.40
2019-05-02T14:25:01.883Z,15.60
2019-05-02T14:28:05.329Z,15.70
2019-05-02T14:31:08.786Z,15.70
2019-05-02T14:34:30.109Z,15.60
2019-05-02T14:37:33.577Z,15.50
2019-05-02T14:40:40.193Z,15.30
2019-05-02T14:43:53.286Z,15.20
2019-05-02T14:46:55.716Z,15.10
2019-05-02T14:50:02.242Z,15.00
2019-05-02T14:53:04.348Z,14.90
2019-05-02T14:56:09.516Z,14.80
2019-05-02T14:59:15.320Z,14.80
2019-05-02T15:02:19.841Z,15.00
2019-05-02T15:05:27.975Z,15.00
2019-05-02T15:08:28.484Z,15.10
2019-05-02T15:11:34.843Z,15.20
2019-05-02T15:14:37.198Z,15.20
2019-05-02T15:17:42.030Z,15.30
2019-05-02T15:20:45.768Z,15.20
2019-05-02T15:23:54.314Z,15.30
2019-05-02T15:26:54.481Z,15.50
2019-05-02T15:30:01.966Z,15.60
2019-05-02T15:33:12.547Z,15.60
2019-05-02T15:36:16.294Z,15.60
2019-05-02T15:42:25.854Z,15.50
2019-05-02T15:45:32.047Z,15.50
2019-05-02T15:48:35.842Z,15.50
2019-05-02T15:51:43.731Z,15.60
2019-05-02T15:54:44.824Z,15.80
2019-05-02T15:57:49.447Z,15.90
2019-05-02T16:01:12.776Z,16.00
2019-05-02T16:04:24.155Z,16.00
2019-05-02T16:07:23.064Z,16.00
2019-05-02T16:10:26.529Z,16.10
2019-05-02T16:13:31.746Z,16.00
2019-05-02T16:16:36.575Z,15.90
2019-05-02T16:19:42.596Z,15.80
2019-05-02T16:22:49.645Z,15.70
2019-05-02T16:25:52.401Z,15.60
2019-05-02T16:28:56.016Z,15.60
2019-05-02T16:32:05.537Z,15.50
2019-05-02T16:35:15.399Z,15.40
2019-05-02T16:38:14.778Z,15.40
2019-05-02T16:41:18.225Z,15.40
2019-05-02T16:44:22.349Z,15.30
2019-05-02T16:47:25.931Z,15.30
2019-05-02T16:50:33.006Z,15.20
2019-05-02T16:53:34.557Z,15.10
2019-05-02T16:56:44.426Z,14.90
2019-05-02T16:59:43.196Z,14.80
2019-05-02T17:02:46.667Z,14.80
2019-05-02T17:05:50.106Z,14.70
2019-05-02T17:08:58.744Z,14.70
2019-05-02T17:12:06.513Z,14.80
2019-05-02T17:15:34.975Z,14.80
2019-05-02T17:18:35.646Z,14.70
2019-05-02T17:21:53.215Z,14.60
2019-05-02T17:24:44.285Z,14.50
2019-05-02T17:27:47.749Z,14.40
2019-05-02T17:30:52.429Z,14.30
2019-05-02T17:33:56.188Z,14.20
2019-05-02T17:37:06.218Z,14.20
2019-05-02T17:40:06.118Z,14.10
2019-05-02T17:43:09.565Z,14.00
2019-05-02T17:46:18.310Z,13.90
2019-05-02T17:49:18.225Z,13.90
2019-05-02T17:52:26.700Z,13.80
2019-05-02T17:55:32.777Z,13.80
2019-05-02T17:58:35.368Z,13.80
2019-05-02T18:01:41.791Z,13.80
2019-05-02T18:04:46.720Z,13.80
2019-05-02T18:07:52.538Z,13.80
2019-05-02T18:10:59.959Z,13.60
2019-05-02T18:14:03.299Z,13.30
2019-05-02T18:17:06.272Z,13.10
2019-05-02T18:20:12.325Z,13.00
2019-05-02T18:23:18.694Z,12.90
2019-05-02T18:26:22.214Z,12.80
2019-05-02T18:29:25.873Z,12.70
2019-05-02T18:32:29.345Z,12.70
2019-05-02T18:35:37.449Z,12.60
2019-05-02T18:38:39.119Z,12.60
2019-05-02T18:41:46.223Z,12.40
2019-05-02T18:44:48.307Z,12.40
2019-05-02T18:48:01.008Z,12.30
2019-05-02T18:50:58.512Z,12.20
2019-05-02T18:54:04.545Z,12.10
2019-05-02T18:57:07.385Z,12.10
2019-05-02T19:00:12.214Z,12.00
2019-05-02T19:03:17.321Z,12.00
2019-05-02T19:06:22.049Z,11.90
2019-05-02T19:09:30.124Z,11.90
2019-05-02T19:12:33.908Z,11.80
2019-05-02T19:15:39.521Z,11.80
2019-05-02T19:18:42.756Z,11.80
2019-05-02T19:21:46.234Z,11.80
2019-05-02T19:24:49.672Z,11.70
2019-05-02T19:27:57.582Z,11.70
2019-05-02T19:31:02.949Z,11.70
2019-05-02T19:34:05.337Z,11.70
2019-05-02T19:37:08.772Z,11.60
2019-05-02T19:40:20.100Z,11.50
2019-05-02T19:43:20.545Z,11.50
2019-05-02T19:46:31.565Z,11.40
2019-05-02T19:49:29.208Z,11.40
2019-05-02T19:52:39.239Z,11.30
2019-05-02T19:55:37.933Z,11.40
2019-05-02T19:58:46.330Z,11.30
2019-05-02T20:01:49.300Z,11.30
2019-05-02T20:04:52.776Z,11.30
2019-05-02T20:07:56.227Z,11.10
2019-05-02T20:10:59.721Z,11.10
2019-05-02T20:14:09.213Z,11.00
2019-05-02T20:17:10.374Z,11.00
2019-05-02T20:20:35.951Z,11.00
2019-05-02T20:23:39.567Z,11.00
2019-05-02T20:26:46.662Z,11.00
2019-05-02T20:29:48.278Z,10.90
2019-05-02T20:32:51.829Z,10.90
2019-05-02T20:35:55.272Z,10.80
2019-05-02T20:38:58.727Z,10.80
2019-05-02T20:42:02.670Z,10.70
2019-05-02T20:45:07.377Z,10.70
2019-05-02T20:48:11.897Z,10.80
2019-05-02T20:51:15.464Z,10.70
2019-05-02T20:54:18.937Z,10.70
2019-05-02T20:57:22.388Z,10.80
2019-05-02T21:00:28.757Z,10.80
2019-05-02T21:03:32.192Z,10.70
2019-05-02T21:06:41.153Z,10.70
2019-05-02T21:09:44.253Z,10.80
2019-05-02T21:12:47.794Z,10.90
2019-05-02T21:15:52.420Z,10.80
2019-05-02T21:18:56.065Z,10.80
2019-05-02T21:22:02.619Z,10.70
2019-05-02T21:25:07.932Z,10.70
2019-05-02T21:28:11.959Z,10.80
2019-05-02T21:31:15.508Z,10.70
2019-05-02T21:34:18.955Z,10.60
2019-05-02T21:37:22.709Z,10.60
2019-05-02T21:40:26.247Z,10.60
2019-05-02T21:43:31.552Z,10.50
2019-05-02T21:46:34.889Z,10.50
2019-05-02T21:49:43.069Z,10.50
2019-05-02T21:52:48.301Z,10.40
2019-05-02T21:55:53.406Z,10.40
2019-05-02T21:59:04.149Z,10.30
2019-05-02T22:02:09.323Z,10.30
2019-05-02T22:05:12.763Z,10.30
2019-05-02T22:08:16.228Z,10.20
2019-05-02T22:11:19.662Z,10.30
2019-05-02T22:14:23.129Z,10.30
2019-05-02T22:17:26.605Z,10.20
2019-05-02T22:20:32.002Z,10.20
2019-05-02T22:23:35.289Z,10.20
2019-05-02T22:26:38.761Z,10.10
2019-05-02T22:29:43.058Z,10.10
2019-05-02T22:32:46.757Z,10.10
2019-05-02T22:35:52.289Z,10.10
2019-05-02T22:39:12.633Z,10.20
2019-05-02T22:42:16.847Z,10.20
2019-05-02T22:45:21.787Z,10.10
2019-05-02T22:48:25.382Z,10.10
2019-05-02T22:51:28.844Z,10.10
2019-05-02T22:54:33.834Z,10.10
2019-05-02T22:57:37.624Z,10.10
2019-05-02T23:00:41.639Z,10.10
2019-05-02T23:03:45.345Z,10.10
2019-05-02T23:06:48.786Z,10.10
2019-05-02T23:09:52.833Z,10.00
2019-05-02T23:12:56.412Z,10.00
2019-05-02T23:15:59.884Z,10.10
2019-05-02T23:19:03.469Z,10.10
2019-05-02T23:22:06.936Z,10.10
2019-05-02T23:25:14.250Z,10.00
2019-05-02T23:28:18.925Z,10.00
2019-05-02T23:31:22.678Z,10.00
2019-05-02T23:34:26.204Z,10.00
2019-05-02T23:37:29.637Z,9.90
2019-05-02T23:40:33.155Z,9.90
2019-05-02T23:43:36.633Z,9.90
2019-05-02T23:46:42.201Z,9.90
2019-05-02T23:49:45.244Z,9.90
2019-05-02T23:52:48.684Z,9.90
2019-05-02T23:55:52.149Z,9.80
2019-05-02T23:58:55.581Z,9.60
